Time;durP1;ratioP1;P1;durP2;ratioP2;P2;SDS_P1;SDS_P2;PMS_P1;PMS_P2;Temp;Humidity;BMP_temperature;BMP_pressure;BME280_temperature;BME280_humidity;BME280_pressure;Samples;Min_cycle;Max_cycle;Signal;HPM_P1;HPM_P2
2021/05/04 00:00:18;;;;;;;7.50;4.80;;;6.80;99.90;;;;;;5065437;28;20885;-68
2021/05/04 00:03:03;;;;;;;7.13;4.90;;;6.80;99.90;;;;;;5064440;28;20520;-69
2021/05/04 00:05:48;;;;;;;8.10;5.70;;;6.70;99.90;;;;;;5067689;28;20469;-69
2021/05/04 00:08:33;;;;;;;6.53;4.83;;;6.60;99.90;;;;;;5065302;28;20471;-69
2021/05/04 00:11:20;;;;;;;5.90;4.63;;;6.50;99.90;;;;;;5059221;28;20513;-68
2021/05/04 00:14:05;;;;;;;5.03;4.33;;;6.60;99.90;;;;;;5065254;28;20443;-68
2021/05/04 00:16:50;;;;;;;5.53;4.23;;;6.60;99.90;;;;;;5065355;28;20474;-69
2021/05/04 00:19:37;;;;;;;5.90;4.60;;;6.60;99.90;;;;;;5068424;28;21203;-70
2021/05/04 00:22:22;;;;;;;6.20;4.57;;;6.60;99.90;;;;;;5077544;28;20539;-70
2021/05/04 00:25:09;;;;;;;6.03;4.70;;;6.60;99.90;;;;;;5067837;28;20497;-69
2021/05/04 00:27:54;;;;;;;9.50;5.00;;;6.50;99.90;;;;;;5073216;28;20528;-69
2021/05/04 00:30:40;;;;;;;4.83;3.87;;;6.60;99.90;;;;;;5067797;28;20520;-69
2021/05/04 00:33:25;;;;;;;6.57;4.60;;;6.60;99.90;;;;;;5065134;28;20462;-70
2021/05/04 00:36:10;;;;;;;6.37;4.57;;;6.70;99.90;;;;;;5067285;28;20987;-69
2021/05/04 00:38:56;;;;;;;7.30;4.50;;;6.60;99.90;;;;;;5069090;28;20488;-69
2021/05/04 00:41:41;;;;;;;6.67;4.10;;;6.80;99.90;;;;;;5066777;28;20580;-70
2021/05/04 00:44:27;;;;;;;5.77;4.70;;;6.80;99.90;;;;;;5060354;28;20433;-69
2021/05/04 00:47:12;;;;;;;6.90;5.00;;;6.80;99.90;;;;;;5065352;28;20461;-69
2021/05/04 00:49:57;;;;;;;6.27;3.73;;;6.90;99.90;;;;;;5065299;28;20461;-69
2021/05/04 00:52:43;;;;;;;5.90;4.07;;;7.10;99.90;;;;;;5064796;28;20497;-70
2021/05/04 00:55:30;;;;;;;5.70;4.00;;;7.30;99.90;;;;;;5066460;28;20458;-69
2021/05/04 00:58:15;;;;;;;8.60;3.43;;;7.60;99.90;;;;;;5067764;28;20449;-70
2021/05/04 01:01:01;;;;;;;5.07;3.50;;;7.80;99.90;;;;;;5067221;28;21010;-69
2021/05/04 01:03:47;;;;;;;4.50;3.63;;;8.20;99.90;;;;;;5068239;28;20560;-70
2021/05/04 01:06:32;;;;;;;5.80;3.60;;;8.60;99.90;;;;;;5063424;28;20473;-69
2021/05/04 01:09:17;;;;;;;4.57;3.07;;;8.80;99.90;;;;;;5064598;28;20532;-69
2021/05/04 01:12:04;;;;;;;5.40;3.13;;;9.20;96.20;;;;;;5062617;28;21041;-70
2021/05/04 01:14:49;;;;;;;6.87;3.37;;;9.50;95.50;;;;;;5064742;28;20466;-70
2021/05/04 01:17:35;;;;;;;6.80;3.07;;;9.80;90.70;;;;;;5062620;28;20474;-70
2021/05/04 01:20:21;;;;;;;6.93;2.97;;;10.10;82.30;;;;;;5065910;28;20463;-70
2021/05/04 01:23:06;;;;;;;4.23;2.87;;;10.30;77.70;;;;;;5064460;28;20967;-69
2021/05/04 01:25:51;;;;;;;5.03;3.30;;;10.50;72.50;;;;;;5062780;28;20461;-70
2021/05/04 01:28:36;;;;;;;7.87;3.23;;;10.60;71.20;;;;;;5063882;28;20466;-70
2021/05/04 01:31:21;;;;;;;5.40;3.30;;;10.70;71.30;;;;;;5063924;28;20464;-71
2021/05/04 01:34:07;;;;;;;4.77;2.70;;;10.70;68.30;;;;;;5065098;28;20538;-69
2021/05/04 01:36:52;;;;;;;4.20;2.90;;;10.80;65.90;;;;;;5065070;28;20508;-69
2021/05/04 01:39:43;;;;;;;4.83;2.73;;;10.90;67.20;;;;;;5063888;28;20802;-70
2021/05/04 01:42:28;;;;;;;5.73;3.43;;;10.90;62.40;;;;;;5062556;28;20960;-69
2021/05/04 01:45:15;;;;;;;16.73;3.13;;;11.00;62.50;;;;;;5065023;28;20454;-70
2021/05/04 01:48:00;;;;;;;5.00;3.40;;;11.10;61.30;;;;;;5071428;28;20500;-70
2021/05/04 01:50:45;;;;;;;4.63;3.30;;;11.10;60.00;;;;;;5058035;28;20542;-69
2021/05/04 01:53:30;;;;;;;6.07;3.37;;;11.20;58.70;;;;;;5060690;28;21072;-70
2021/05/04 01:56:16;;;;;;;5.70;2.83;;;11.20;57.20;;;;;;5064920;28;20456;-70
2021/05/04 01:59:03;;;;;;;3.80;2.60;;;11.30;57.20;;;;;;5062721;28;20456;-68
2021/05/04 02:01:48;;;;;;;6.50;2.90;;;11.20;57.10;;;;;;5065355;28;20777;-69
2021/05/04 02:04:33;;;;;;;4.80;2.70;;;11.20;57.10;;;;;;5067628;28;20432;-69
2021/05/04 02:07:18;;;;;;;4.00;2.63;;;11.20;57.10;;;;;;5069427;28;20554;-70
2021/05/04 02:10:04;;;;;;;6.07;2.77;;;11.30;56.70;;;;;;5074987;28;20799;-69
2021/05/04 02:12:50;;;;;;;3.73;2.57;;;11.30;57.20;;;;;;5065574;28;20486;-69
2021/05/04 02:15:35;;;;;;;5.87;3.23;;;11.30;56.60;;;;;;5066104;28;20538;-69
2021/05/04 02:18:21;;;;;;;6.30;3.70;;;11.40;55.50;;;;;;5070028;28;20463;-70
2021/05/04 02:21:06;;;;;;;7.00;3.10;;;11.40;55.20;;;;;;5068926;28;20537;-69
2021/05/04 02:23:52;;;;;;;5.40;3.13;;;11.30;54.90;;;;;;5069762;28;21145;-70
2021/05/04 02:26:37;;;;;;;5.50;3.53;;;11.40;54.20;;;;;;5069485;28;20533;-70
2021/05/04 02:29:23;;;;;;;3.20;2.47;;;11.40;54.60;;;;;;5068622;28;20823;-70
2021/05/04 02:32:08;;;;;;;5.67;2.97;;;11.50;53.40;;;;;;5067214;28;20488;-69
2021/05/04 02:34:53;;;;;;;11.77;3.30;;;11.60;52.00;;;;;;5073262;28;20431;-70
2021/05/04 02:37:38;;;;;;;6.17;2.70;;;11.60;51.80;;;;;;5068886;28;20494;-69
2021/05/04 02:40:24;;;;;;;3.70;2.67;;;11.60;51.10;;;;;;5067113;28;20495;-70
2021/05/04 02:43:09;;;;;;;5.27;3.13;;;11.60;52.40;;;;;;5068073;28;20802;-69
2021/05/04 02:45:55;;;;;;;4.03;3.00;;;11.60;51.80;;;;;;5063178;28;20468;-69
2021/05/04 02:48:42;;;;;;;4.37;3.30;;;11.60;51.80;;;;;;5070339;28;20438;-71
2021/05/04 02:51:28;;;;;;;5.10;3.20;;;11.60;52.10;;;;;;5065385;28;20482;-69
2021/05/04 02:54:13;;;;;;;5.13;2.77;;;11.50;52.10;;;;;;5068166;28;20458;-69
2021/05/04 02:56:58;;;;;;;4.17;2.80;;;11.50;52.10;;;;;;5069314;28;20473;-70
2021/05/04 02:59:43;;;;;;;3.70;2.80;;;11.50;52.70;;;;;;5069082;28;20459;-69
2021/05/04 03:02:30;;;;;;;5.40;3.50;;;11.50;53.10;;;;;;5067854;28;20539;-70
2021/05/04 03:05:15;;;;;;;12.07;3.30;;;11.50;52.50;;;;;;5066422;28;20431;-69
2021/05/04 03:08:00;;;;;;;3.47;2.60;;;11.40;52.60;;;;;;5069124;28;20975;-70
2021/05/04 03:10:45;;;;;;;4.40;2.63;;;11.40;53.10;;;;;;5064556;28;20959;-69
2021/05/04 03:13:32;;;;;;;3.73;2.60;;;11.40;53.50;;;;;;5068831;28;20478;-70
2021/05/04 03:16:16;;;;;;;14.00;3.27;;;11.40;53.80;;;;;;5068081;28;20473;-70
2021/05/04 03:19:03;;;;;;;4.73;3.10;;;11.40;53.90;;;;;;5069439;28;20544;-68
2021/05/04 03:21:48;;;;;;;6.07;2.60;;;11.40;53.80;;;;;;5066833;28;20806;-70
2021/05/04 03:24:33;;;;;;;4.80;3.17;;;11.30;53.70;;;;;;5065098;28;20910;-69
2021/05/04 03:27:19;;;;;;;5.53;2.70;;;11.30;53.70;;;;;;5070689;28;21196;-69
2021/05/04 03:30:05;;;;;;;3.30;2.40;;;11.20;54.30;;;;;;5064751;28;20417;-69
2021/05/04 03:32:50;;;;;;;8.13;2.43;;;11.30;54.90;;;;;;5072171;28;20538;-70
2021/05/04 03:35:36;;;;;;;5.33;3.80;;;11.30;54.10;;;;;;5061465;28;20454;-70
2021/05/04 03:38:21;;;;;;;3.87;2.83;;;11.40;54.00;;;;;;5066132;28;20428;-69
2021/05/04 03:41:06;;;;;;;3.70;2.73;;;11.30;53.20;;;;;;5066250;28;20459;-68
2021/05/04 03:43:51;;;;;;;4.07;2.87;;;11.30;53.50;;;;;;5058927;28;20531;-69
2021/05/04 03:46:36;;;;;;;5.30;3.40;;;11.40;54.30;;;;;;5061783;28;20537;-69
2021/05/04 03:49:21;;;;;;;9.30;3.40;;;11.40;53.00;;;;;;5073110;28;20979;-69
2021/05/04 03:52:08;;;;;;;3.20;2.43;;;11.50;53.10;;;;;;5064865;28;20444;-70
2021/05/04 03:54:52;;;;;;;3.47;2.60;;;11.50;52.80;;;;;;5060787;28;20859;-70
2021/05/04 03:57:38;;;;;;;4.30;2.50;;;11.50;53.50;;;;;;5066018;28;20432;-69
2021/05/04 04:00:23;;;;;;;3.80;2.87;;;11.40;53.30;;;;;;5063986;28;20429;-69
2021/05/04 04:03:08;;;;;;;4.30;2.93;;;11.50;53.10;;;;;;5064796;28;21047;-69
2021/05/04 04:05:55;;;;;;;4.50;2.90;;;11.60;52.70;;;;;;5061773;28;20481;-70
2021/05/04 04:08:41;;;;;;;5.93;3.17;;;11.60;52.80;;;;;;5061519;28;21354;-69
2021/05/04 04:11:26;;;;;;;3.73;2.83;;;11.60;52.70;;;;;;5060631;28;20530;-69
2021/05/04 04:14:11;;;;;;;10.03;2.97;;;11.60;52.90;;;;;;5061569;28;20444;-70
2021/05/04 04:16:57;;;;;;;4.37;2.70;;;11.60;53.70;;;;;;5060749;28;20475;-70
2021/05/04 04:19:41;;;;;;;4.90;2.73;;;11.70;53.60;;;;;;5061508;28;20447;-69
2021/05/04 04:22:27;;;;;;;4.60;3.03;;;11.60;53.20;;;;;;5061397;28;20447;-69
2021/05/04 04:25:13;;;;;;;4.30;2.57;;;11.60;54.50;;;;;;5063577;28;20538;-69
2021/05/04 04:27:58;;;;;;;4.27;2.87;;;11.60;53.90;;;;;;5066158;28;20454;-69
2021/05/04 04:30:44;;;;;;;3.43;2.70;;;11.70;54.40;;;;;;5062634;28;20842;-68
2021/05/04 04:33:29;;;;;;;3.80;2.80;;;11.70;54.20;;;;;;5063591;28;20441;-70
2021/05/04 04:36:14;;;;;;;4.53;2.77;;;11.70;54.20;;;;;;5065288;28;20543;-70
2021/05/04 04:38:59;;;;;;;6.93;3.43;;;11.60;54.10;;;;;;5061571;28;20882;-69
2021/05/04 04:41:45;;;;;;;6.53;2.50;;;11.70;54.20;;;;;;5062663;28;20471;-70
2021/05/04 04:44:30;;;;;;;5.13;2.93;;;11.70;54.40;;;;;;5058280;28;21126;-70
2021/05/04 04:47:15;;;;;;;6.03;3.97;;;11.70;54.40;;;;;;5062905;28;20521;-70
2021/05/04 04:50:01;;;;;;;9.23;4.57;;;11.70;54.90;;;;;;5062964;28;20421;-69
2021/05/04 04:52:46;;;;;;;5.57;3.00;;;11.70;54.90;;;;;;5064721;28;20472;-69
2021/05/04 04:55:31;;;;;;;6.27;3.77;;;11.70;54.80;;;;;;5069038;28;20454;-68
2021/05/04 04:58:17;;;;;;;6.03;3.37;;;11.70;55.50;;;;;;5061526;28;20471;-69
2021/05/04 05:01:02;;;;;;;6.57;4.27;;;11.80;55.60;;;;;;5065418;28;20459;-69
2021/05/04 05:03:47;;;;;;;3.97;2.80;;;11.80;55.50;;;;;;5065715;28;20509;-70
2021/05/04 05:06:32;;;;;;;5.70;2.90;;;11.80;55.10;;;;;;5065131;28;21011;-70
2021/05/04 05:09:18;;;;;;;4.60;3.47;;;11.70;55.70;;;;;;5064490;28;20549;-69
2021/05/04 05:12:05;;;;;;;4.10;3.10;;;11.80;56.30;;;;;;5064652;28;20563;-68
2021/05/04 05:14:52;;;;;;;7.77;3.60;;;11.80;56.10;;;;;;5057963;28;20969;-69
2021/05/04 05:17:37;;;;;;;4.63;3.23;;;11.80;56.70;;;;;;5067758;28;20485;-69
2021/05/04 05:20:23;;;;;;;4.47;3.13;;;11.80;56.90;;;;;;5067217;28;20420;-68
2021/05/04 05:23:08;;;;;;;4.90;3.17;;;11.90;55.60;;;;;;5066778;28;20450;-69
2021/05/04 05:25:53;;;;;;;8.00;2.60;;;11.90;56.20;;;;;;5064859;28;20581;-68
2021/05/04 05:28:38;;;;;;;4.53;3.27;;;11.90;55.50;;;;;;5063350;28;20488;-68
2021/05/04 05:31:28;;;;;;;5.27;3.20;;;11.90;55.40;;;;;;5068228;28;21023;-69
2021/05/04 05:34:14;;;;;;;6.00;3.43;;;12.00;55.00;;;;;;5074179;28;20483;-69
2021/05/04 05:36:59;;;;;;;5.60;3.10;;;12.00;54.60;;;;;;5063675;28;20448;-68
2021/05/04 05:39:44;;;;;;;4.27;2.90;;;12.10;54.80;;;;;;5065942;28;21185;-69
2021/05/04 05:42:29;;;;;;;5.47;3.13;;;12.20;55.10;;;;;;5063411;28;20443;-68
2021/05/04 05:45:15;;;;;;;6.70;3.57;;;12.20;54.40;;;;;;5065179;28;20500;-69
2021/05/04 05:48:01;;;;;;;5.20;3.27;;;12.20;53.90;;;;;;5066623;28;20489;-69
2021/05/04 05:50:46;;;;;;;4.90;3.10;;;12.20;54.60;;;;;;5068479;28;20486;-70
2021/05/04 05:53:32;;;;;;;3.90;3.10;;;12.20;54.80;;;;;;5066613;28;20536;-69
2021/05/04 05:56:17;;;;;;;7.80;3.07;;;12.30;53.50;;;;;;5064686;28;20474;-69
2021/05/04 05:59:02;;;;;;;4.07;2.60;;;12.20;52.90;;;;;;5062647;28;20561;-67
2021/05/04 06:01:47;;;;;;;5.20;2.83;;;12.20;54.10;;;;;;5067238;28;20445;-68
2021/05/04 06:04:33;;;;;;;6.13;3.27;;;12.20;54.10;;;;;;5065265;28;20420;-69
2021/05/04 06:07:18;;;;;;;4.73;2.50;;;12.20;54.00;;;;;;5066789;28;20432;-67
2021/05/04 06:10:04;;;;;;;6.20;3.33;;;12.30;54.90;;;;;;5065719;28;20446;-67
2021/05/04 06:12:57;;;;;;;4.87;3.13;;;12.40;55.10;;;;;;5061920;28;20492;-69
2021/05/04 06:15:43;;;;;;;5.13;3.33;;;12.30;53.00;;;;;;5056140;28;20458;-70
2021/05/04 06:18:28;;;;;;;3.50;2.70;;;12.30;53.40;;;;;;5063400;28;20986;-70
2021/05/04 06:21:14;;;;;;;3.90;2.73;;;12.30;53.60;;;;;;5063846;28;20441;-70
2021/05/04 06:23:59;;;;;;;9.00;3.03;;;12.40;54.10;;;;;;5062650;28;20450;-70
2021/05/04 06:26:45;;;;;;;4.47;2.30;;;12.30;53.20;;;;;;5065521;28;20478;-68
2021/05/04 06:29:30;;;;;;;8.77;3.40;;;12.20;53.30;;;;;;5064619;28;20421;-69
2021/05/04 06:32:16;;;;;;;4.97;2.90;;;12.20;53.60;;;;;;5071036;28;20846;-68
2021/05/04 06:35:01;;;;;;;8.93;2.57;;;12.20;53.50;;;;;;5065779;28;20472;-68
2021/05/04 06:37:48;;;;;;;3.80;2.60;;;12.20;53.00;;;;;;5067770;28;20448;-69
2021/05/04 06:40:34;;;;;;;4.60;2.43;;;12.20;53.60;;;;;;5065507;28;20533;-70
2021/05/04 06:43:19;;;;;;;8.60;3.10;;;12.40;54.20;;;;;;5060185;28;20962;-69
2021/05/04 06:46:05;;;;;;;5.20;2.90;;;12.40;52.90;;;;;;5061303;28;20475;-69
2021/05/04 06:48:50;;;;;;;9.80;5.70;;;12.40;52.80;;;;;;5067448;28;20216;-70
2021/05/04 06:51:36;;;;;;;4.87;3.07;;;12.40;53.80;;;;;;5066036;28;20448;-69
2021/05/04 06:54:22;;;;;;;5.50;3.03;;;12.40;52.80;;;;;;5069115;28;20961;-70
2021/05/04 06:57:07;;;;;;;8.73;2.60;;;12.40;53.20;;;;;;5067064;28;20447;-71
2021/05/04 06:59:52;;;;;;;8.07;3.00;;;12.40;54.20;;;;;;5071379;28;20452;-68
2021/05/04 07:02:37;;;;;;;5.13;2.90;;;12.40;53.90;;;;;;5065023;28;20443;-70
2021/05/04 07:05:23;;;;;;;4.30;2.80;;;12.40;54.40;;;;;;5066683;28;21135;-69
2021/05/04 07:08:08;;;;;;;7.53;3.00;;;12.40;53.80;;;;;;5064806;28;20441;-71
2021/05/04 07:10:54;;;;;;;4.63;3.30;;;12.50;54.30;;;;;;5062270;28;20432;-69
2021/05/04 07:13:41;;;;;;;10.53;5.70;;;12.40;53.60;;;;;;5060920;28;20542;-69
2021/05/04 07:16:26;;;;;;;2.90;2.20;;;12.50;55.50;;;;;;5063940;28;20451;-69
2021/05/04 07:19:11;;;;;;;3.63;2.60;;;12.40;53.70;;;;;;5066462;28;20421;-70
2021/05/04 07:21:57;;;;;;;4.30;2.60;;;12.40;54.50;;;;;;5062148;28;20458;-69
2021/05/04 07:24:42;;;;;;;5.30;2.43;;;12.40;54.60;;;;;;5067963;28;20470;-69
2021/05/04 07:27:28;;;;;;;12.60;2.50;;;12.40;54.40;;;;;;5065417;28;21011;-69
2021/05/04 07:30:15;;;;;;;3.60;2.63;;;12.50;54.50;;;;;;5069080;28;20508;-68
2021/05/04 07:33:00;;;;;;;9.07;2.90;;;12.50;54.80;;;;;;5067458;28;20544;-68
2021/05/04 07:35:45;;;;;;;6.90;2.30;;;12.50;54.30;;;;;;5066680;28;20454;-69
2021/05/04 07:38:31;;;;;;;3.50;2.13;;;12.50;54.00;;;;;;5062742;28;20812;-69
2021/05/04 07:41:16;;;;;;;6.03;2.30;;;12.50;53.50;;;;;;5059472;28;20438;-68
2021/05/04 07:44:02;;;;;;;3.53;2.50;;;12.60;53.00;;;;;;5068597;28;20425;-69
2021/05/04 07:46:47;;;;;;;4.63;2.17;;;12.60;52.80;;;;;;5067949;28;20433;-69
2021/05/04 07:49:35;;;;;;;9.23;2.60;;;12.70;51.50;;;;;;5067336;28;20417;-69
2021/05/04 07:52:20;;;;;;;5.03;1.97;;;12.80;51.30;;;;;;5065163;28;20902;-69
2021/05/04 07:55:06;;;;;;;6.60;2.20;;;12.80;47.70;;;;;;5066449;28;20495;-68
2021/05/04 07:57:51;;;;;;;10.63;1.90;;;12.90;46.40;;;;;;5074305;28;20511;-69
2021/05/04 08:00:37;;;;;;;4.00;1.93;;;12.90;45.80;;;;;;5067534;28;20413;-69
2021/05/04 08:03:22;;;;;;;3.43;2.20;;;12.90;45.70;;;;;;5066807;28;20439;-70
2021/05/04 08:06:07;;;;;;;2.87;1.90;;;13.00;45.80;;;;;;5067186;28;20959;-69
2021/05/04 08:08:53;;;;;;;5.70;1.80;;;13.00;44.10;;;;;;5068159;28;20461;-68
2021/05/04 08:11:38;;;;;;;4.50;1.83;;;13.10;41.70;;;;;;5065374;28;20491;-69
2021/05/04 08:14:24;;;;;;;5.07;1.50;;;13.10;41.60;;;;;;5066918;28;20504;-69
2021/05/04 08:17:13;;;;;;;11.30;1.60;;;13.20;40.80;;;;;;5066545;28;20458;-69
2021/05/04 08:20:01;;;;;;;6.93;2.40;;;13.10;39.50;;;;;;5065616;28;20428;-70
2021/05/04 08:22:46;;;;;;;4.20;2.00;;;13.20;41.40;;;;;;5064113;28;20907;-70
2021/05/04 08:25:31;;;;;;;3.93;1.70;;;13.20;40.20;;;;;;5063815;28;20446;-70
2021/05/04 08:28:16;;;;;;;3.67;1.90;;;13.20;40.00;;;;;;5065973;28;20546;-70
2021/05/04 08:31:01;;;;;;;2.77;1.73;;;13.20;40.50;;;;;;5066938;28;20539;-69
2021/05/04 08:33:48;;;;;;;7.50;2.90;;;13.30;40.90;;;;;;5066509;28;20472;-69
2021/05/04 08:36:33;;;;;;;6.67;2.23;;;13.30;42.20;;;;;;5066370;28;20494;-69
2021/05/04 08:39:17;;;;;;;8.20;2.17;;;13.30;43.30;;;;;;5065736;28;21122;-69
2021/05/04 08:42:03;;;;;;;4.87;1.80;;;13.30;44.30;;;;;;5065776;28;20517;-69
2021/05/04 08:44:52;;;;;;;6.20;1.80;;;13.30;46.20;;;;;;5065087;28;20564;-69
2021/05/04 08:47:37;;;;;;;6.07;1.60;;;13.20;46.10;;;;;;5064385;28;20962;-69
2021/05/04 08:50:24;;;;;;;3.93;2.10;;;13.10;47.90;;;;;;5068164;28;20973;-68
2021/05/04 08:53:09;;;;;;;2.67;1.50;;;13.10;48.70;;;;;;5065346;28;20450;-68
2021/05/04 08:55:55;;;;;;;5.47;1.90;;;13.00;49.20;;;;;;5071819;28;20450;-69
2021/05/04 08:58:41;;;;;;;5.60;1.77;;;13.00;50.30;;;;;;5071658;28;20462;-69
2021/05/04 09:01:26;;;;;;;7.30;1.70;;;13.00;50.20;;;;;;5065144;28;20464;-69
2021/05/04 09:04:30;;;;;;;11.53;2.00;;;12.90;50.80;;;;;;5064848;28;20560;-68
2021/05/04 09:07:21;;;;;;;4.50;2.60;;;12.80;51.70;;;;;;5066537;28;20574;-69
2021/05/04 09:10:18;;;;;;;2.93;1.60;;;12.80;52.00;;;;;;5061054;28;20463;-69
2021/05/04 09:13:06;;;;;;;6.10;1.97;;;12.80;52.30;;;;;;5063440;28;20589;-68
2021/05/04 09:22:16;;;;;;;3.97;2.40;;;12.70;55.20;;;;;;5064531;28;20450;-68
2021/05/04 09:25:04;;;;;;;3.80;1.67;;;12.70;56.30;;;;;;5064726;28;20715;-69
2021/05/04 09:27:59;;;;;;;3.07;1.70;;;12.70;57.40;;;;;;5065265;28;20466;-69
2021/05/04 09:30:52;;;;;;;3.80;1.60;;;12.70;57.00;;;;;;5064486;28;20964;-68
2021/05/04 09:33:38;;;;;;;7.67;2.00;;;12.60;56.60;;;;;;5065038;28;20493;-68
2021/05/04 09:36:45;;;;;;;4.53;2.83;;;12.60;57.70;;;;;;5065262;28;20464;-69
2021/05/04 09:39:31;;;;;;;8.60;1.57;;;12.70;59.20;;;;;;5065456;28;20421;-69
2021/05/04 09:42:17;;;;;;;3.00;1.70;;;12.70;59.50;;;;;;5066825;28;20468;-68
2021/05/04 09:45:02;;;;;;;4.40;1.87;;;12.70;59.80;;;;;;5064966;28;20464;-68
2021/05/04 09:47:47;;;;;;;1.93;1.33;;;12.60;59.90;;;;;;5068945;28;20449;-68
2021/05/04 09:50:57;;;;;;;16.47;2.37;;;12.70;60.30;;;;;;5071077;28;20476;-70
2021/05/04 09:53:46;;;;;;;3.90;2.37;;;12.70;61.10;;;;;;5060956;28;20455;-70
2021/05/04 09:56:33;;;;;;;2.67;1.87;;;12.80;62.00;;;;;;5057799;28;20876;-69
2021/05/04 09:59:19;;;;;;;2.63;1.60;;;12.80;61.40;;;;;;5063715;28;20521;-69
2021/05/04 10:02:04;;;;;;;5.30;1.70;;;12.70;63.20;;;;;;5056239;28;20459;-70
2021/05/04 10:04:51;;;;;;;3.90;1.60;;;12.70;65.00;;;;;;5063604;28;20470;-68
2021/05/04 10:07:37;;;;;;;12.77;1.93;;;12.70;67.20;;;;;;5066533;28;20487;-69
2021/05/04 10:10:23;;;;;;;5.53;1.60;;;12.70;67.10;;;;;;5058058;28;20713;-70
2021/05/04 10:13:08;;;;;;;4.30;1.90;;;12.70;68.00;;;;;;5060421;28;20409;-70
2021/05/04 10:15:55;;;;;;;3.70;1.30;;;12.70;68.70;;;;;;5064394;28;20472;-70
2021/05/04 10:18:40;;;;;;;5.10;1.80;;;12.80;68.70;;;;;;5065035;28;20501;-69
2021/05/04 10:21:26;;;;;;;4.80;3.00;;;12.70;69.60;;;;;;5065601;28;20538;-69
2021/05/04 10:24:11;;;;;;;7.47;4.33;;;12.70;70.50;;;;;;5065255;28;20457;-69
2021/05/04 10:26:57;;;;;;;2.83;1.50;;;12.70;70.80;;;;;;5068552;28;20444;-69
2021/05/04 10:29:43;;;;;;;2.00;1.20;;;12.60;72.20;;;;;;5069086;28;20417;-69
2021/05/04 10:32:48;;;;;;;3.23;1.50;;;12.60;72.80;;;;;;5068515;28;20445;-70
2021/05/04 10:35:45;;;;;;;8.03;1.90;;;12.60;75.20;;;;;;5072281;28;20452;-70
2021/05/04 10:38:52;;;;;;;10.40;1.53;;;12.50;78.00;;;;;;5076676;28;20413;-69
2021/05/04 10:41:55;;;;;;;6.80;1.83;;;12.50;78.60;;;;;;5064681;28;20497;-69
2021/05/04 10:45:10;;;;;;;9.47;1.67;;;12.50;79.20;;;;;;5065314;28;20988;-69
2021/05/04 10:48:01;;;;;;;3.13;1.40;;;12.50;80.50;;;;;;5070558;28;20488;-70
2021/05/04 10:50:49;;;;;;;4.90;1.90;;;12.50;80.30;;;;;;5069919;28;20927;-69
2021/05/04 10:54:03;;;;;;;3.17;1.50;;;12.50;80.70;;;;;;5069900;28;20955;-70
2021/05/04 10:56:57;;;;;;;5.73;2.27;;;12.50;80.20;;;;;;5062968;28;21370;-70
2021/05/04 10:59:45;;;;;;;9.50;1.93;;;12.50;80.60;;;;;;5062837;28;20942;-68
2021/05/04 11:02:33;;;;;;;3.03;1.53;;;12.50;81.10;;;;;;5075212;28;20463;-69
2021/05/04 11:08:11;;;;;;;4.63;1.43;;;12.50;82.30;;;;;;5094321;27;20577;-70
2021/05/04 11:11:21;;;;;;;10.53;2.07;;;12.50;83.20;;;;;;5067389;28;20450;-70
2021/05/04 11:14:07;;;;;;;3.20;1.40;;;12.40;83.20;;;;;;5074649;28;20450;-70
2021/05/04 11:17:17;;;;;;;3.93;1.67;;;12.40;83.50;;;;;;5079531;28;20602;-70
2021/05/04 11:20:29;;;;;;;4.10;1.87;;;12.40;82.60;;;;;;5071503;28;20686;-70
2021/05/04 11:23:15;;;;;;;2.53;1.70;;;12.50;83.20;;;;;;5068734;28;20450;-70
2021/05/04 11:26:00;;;;;;;3.23;2.00;;;12.50;84.50;;;;;;5068062;28;20560;-70
2021/05/04 11:29:06;;;;;;;3.53;1.87;;;12.50;83.30;;;;;;5070896;28;20446;-69
2021/05/04 11:31:54;;;;;;;4.53;1.77;;;12.50;83.20;;;;;;5069186;28;20450;-70
2021/05/04 11:34:40;;;;;;;5.47;1.93;;;12.40;83.60;;;;;;5073570;28;20914;-70
2021/05/04 11:37:40;;;;;;;4.73;1.50;;;12.50;83.80;;;;;;5068346;28;20557;-70
2021/05/04 11:40:28;;;;;;;5.30;1.70;;;12.50;84.00;;;;;;5078588;28;20670;-70
2021/05/04 11:43:19;;;;;;;12.30;2.27;;;12.60;85.00;;;;;;5081681;28;20429;-69
2021/05/04 11:46:04;;;;;;;4.10;1.30;;;12.60;85.30;;;;;;5073311;28;20540;-70
2021/05/04 11:48:59;;;;;;;3.87;1.90;;;12.50;86.70;;;;;;5070075;28;20442;-70
2021/05/04 11:51:44;;;;;;;3.97;1.63;;;12.50;86.70;;;;;;5079193;28;20463;-69
2021/05/04 11:54:31;;;;;;;4.00;1.67;;;12.50;86.70;;;;;;5071515;28;20428;-68
2021/05/04 11:57:17;;;;;;;3.40;1.87;;;12.60;87.10;;;;;;5069104;28;20876;-68
2021/05/04 12:00:04;;;;;;;10.80;3.50;;;12.50;87.80;;;;;;5070666;28;20497;-69
2021/05/04 12:02:49;;;;;;;5.40;1.93;;;12.60;87.80;;;;;;5069431;28;20486;-70
2021/05/04 12:05:36;;;;;;;6.67;1.70;;;12.60;88.50;;;;;;5066581;28;20446;-69
2021/05/04 12:08:21;;;;;;;6.73;1.80;;;12.60;89.00;;;;;;5072302;28;22351;-70
2021/05/04 12:11:06;;;;;;;7.60;2.10;;;12.60;90.60;;;;;;5073433;28;20456;-70
2021/05/04 12:13:58;;;;;;;4.30;1.80;;;12.70;90.10;;;;;;5079032;28;20506;-69
2021/05/04 12:16:43;;;;;;;5.37;1.50;;;12.60;90.40;;;;;;5069738;28;20841;-70
2021/05/04 12:19:29;;;;;;;5.20;1.40;;;12.60;90.50;;;;;;5056234;28;20522;-69
2021/05/04 12:22:14;;;;;;;3.60;2.00;;;12.60;90.80;;;;;;5052822;28;20484;-70
2021/05/04 12:24:59;;;;;;;4.83;2.00;;;12.50;91.10;;;;;;5065234;28;20482;-70
2021/05/04 12:27:45;;;;;;;7.53;1.43;;;12.50;91.70;;;;;;5057771;28;20481;-69
2021/05/04 12:30:31;;;;;;;13.47;7.03;;;12.40;92.40;;;;;;5060530;28;20504;-69
2021/05/04 12:33:19;;;;;;;3.80;1.73;;;12.50;93.00;;;;;;5060866;28;20492;-69
2021/05/04 12:36:07;;;;;;;7.47;1.73;;;12.40;92.90;;;;;;5067632;28;20443;-70
2021/05/04 12:38:55;;;;;;;3.50;1.70;;;12.40;92.90;;;;;;5060850;28;20490;-70
2021/05/04 12:41:48;;;;;;;5.33;1.60;;;12.40;93.40;;;;;;5063427;28;20508;-71
2021/05/04 12:44:35;;;;;;;2.80;2.10;;;12.20;94.20;;;;;;5059064;28;20465;-70
2021/05/04 12:47:21;;;;;;;8.50;1.90;;;12.30;94.90;;;;;;5056361;28;20487;-69
2021/05/04 12:50:07;;;;;;;2.37;1.57;;;12.20;95.50;;;;;;5059470;28;20475;-70
2021/05/04 12:52:52;;;;;;;2.03;1.23;;;12.20;96.20;;;;;;5061630;28;20475;-70
2021/05/04 12:55:37;;;;;;;3.90;1.80;;;12.40;96.30;;;;;;5060769;28;20413;-70
2021/05/04 12:58:22;;;;;;;2.20;1.50;;;12.40;96.10;;;;;;5056592;28;20501;-69
2021/05/04 13:01:09;;;;;;;4.53;1.50;;;12.50;96.20;;;;;;5062331;28;20485;-69
2021/05/04 13:03:56;;;;;;;7.47;1.80;;;12.50;96.20;;;;;;5054159;28;20421;-69
2021/05/04 13:06:46;;;;;;;2.10;1.60;;;12.50;96.60;;;;;;5061415;28;20487;-71
2021/05/04 13:09:48;;;;;;;6.50;1.50;;;12.50;96.50;;;;;;5058266;28;20478;-70
2021/05/04 13:16:08;;;;;;;2.60;1.90;;;12.50;96.90;;;;;;5055645;28;20480;-71
2021/05/04 13:28:58;;;;;;;4.53;1.73;;;12.60;96.50;;;;;;5050419;28;20492;-69
2021/05/04 13:31:47;;;;;;;3.33;1.93;;;12.50;97.60;;;;;;5060799;28;20537;-70
2021/05/04 13:34:40;;;;;;;5.90;2.53;;;12.50;98.30;;;;;;5059926;28;20421;-70
2021/05/04 13:37:29;;;;;;;3.20;2.10;;;12.50;99.50;;;;;;5057774;28;20483;-71
2021/05/04 13:40:27;;;;;;;3.60;2.10;;;12.50;99.60;;;;;;5055310;28;20414;-69
2021/05/04 13:49:19;;;;;;;2.77;1.60;;;12.60;98.80;;;;;;5060808;28;20690;-70
2021/05/04 13:52:06;;;;;;;2.50;1.63;;;12.70;98.10;;;;;;5054989;28;20426;-69
2021/05/04 13:54:51;;;;;;;2.67;1.70;;;12.70;97.30;;;;;;5053892;28;20445;-69
2021/05/04 13:57:38;;;;;;;10.33;5.87;;;12.60;97.30;;;;;;5059039;28;20470;-70
2021/05/04 14:00:29;;;;;;;5.37;2.90;;;12.60;98.00;;;;;;5058126;28;20468;-70
2021/05/04 14:25:09;;;;;;;3.40;1.80;;;12.40;99.90;;;;;;5064947;28;21036;-70
2021/05/04 14:27:54;;;;;;;5.80;2.27;;;12.30;99.90;;;;;;5057157;28;20531;-69
2021/05/04 14:30:39;;;;;;;4.47;2.20;;;12.30;99.90;;;;;;5050125;28;20846;-70
2021/05/04 14:33:24;;;;;;;6.47;1.90;;;12.30;99.90;;;;;;5054767;28;20454;-70
2021/05/04 14:36:29;;;;;;;7.50;1.87;;;12.20;99.90;;;;;;5054516;28;20818;-71
2021/05/04 14:39:23;;;;;;;5.87;2.00;;;12.20;99.90;;;;;;5062737;28;21088;-70
2021/05/04 14:45:57;;;;;;;3.60;2.27;;;12.20;99.90;;;;;;5035588;28;20436;-70
2021/05/04 15:01:17;;;;;;;2.30;1.30;;;12.10;99.90;;;;;;5058743;28;20458;-69
2021/05/04 15:04:02;;;;;;;2.73;1.63;;;12.10;99.90;;;;;;5053212;28;20842;-70
2021/05/04 15:06:47;;;;;;;2.50;1.40;;;12.10;99.90;;;;;;5058117;28;21054;-70
2021/05/04 15:09:32;;;;;;;4.77;2.03;;;12.20;99.90;;;;;;5054918;28;20595;-70
2021/05/04 15:12:19;;;;;;;2.73;1.73;;;11.90;99.90;;;;;;5058195;28;20425;-70
2021/05/04 15:15:12;;;;;;;3.73;2.00;;;11.90;99.90;;;;;;5059474;28;20467;-69
2021/05/04 15:18:01;;;;;;;3.10;2.30;;;11.90;99.90;;;;;;5053084;28;20483;-70
2021/05/04 15:21:20;;;;;;;4.07;2.43;;;11.90;99.90;;;;;;5050402;28;20493;-69
2021/05/04 15:24:06;;;;;;;3.60;2.00;;;11.80;99.90;;;;;;5057507;28;20447;-70
2021/05/04 15:26:51;;;;;;;3.03;2.20;;;11.90;99.90;;;;;;5066197;28;20486;-70
2021/05/04 15:29:37;;;;;;;3.30;2.60;;;12.00;99.90;;;;;;5055140;28;20490;-70
2021/05/04 15:32:26;;;;;;;2.90;2.10;;;11.90;99.90;;;;;;5050498;28;20523;-70
2021/05/04 15:35:13;;;;;;;3.20;2.40;;;11.90;99.90;;;;;;5051922;28;20438;-71
2021/05/04 15:37:58;;;;;;;4.90;2.47;;;11.90;99.90;;;;;;5048094;28;20441;-70